sensor_id;sensor_type;location;lat;lon;timestamp;P1;durP1;ratioP1;P2;durP2;ratioP2
20036;SDS011;10179;42.640;23.312;2023-11-22T00:00:06;28.60;;;14.48;;
20036;SDS011;10179;42.640;23.312;2023-11-22T00:02:33;30.45;;;14.60;;
20036;SDS011;10179;42.640;23.312;2023-11-22T00:04:58;35.90;;;14.55;;
20036;SDS011;10179;42.640;23.312;2023-11-22T00:07:24;28.80;;;14.65;;
20036;SDS011;10179;42.640;23.312;2023-11-22T00:09:49;29.17;;;13.57;;
20036;SDS011;10179;42.640;23.312;2023-11-22T00:12:15;25.02;;;13.48;;
20036;SDS011;10179;42.640;23.312;2023-11-22T00:14:42;22.23;;;12.25;;
20036;SDS011;10179;42.640;23.312;2023-11-22T00:17:08;22.15;;;11.45;;
20036;SDS011;10179;42.640;23.312;2023-11-22T00:19:33;16.63;;;8.90;;
20036;SDS011;10179;42.640;23.312;2023-11-22T00:21:59;14.77;;;8.57;;
20036;SDS011;10179;42.640;23.312;2023-11-22T00:24:25;14.25;;;7.25;;
20036;SDS011;10179;42.640;23.312;2023-11-22T00:26:50;18.80;;;9.85;;
20036;SDS011;10179;42.640;23.312;2023-11-22T00:29:15;24.20;;;10.10;;
20036;SDS011;10179;42.640;23.312;2023-11-22T00:31:41;20.40;;;11.00;;
20036;SDS011;10179;42.640;23.312;2023-11-22T00:34:07;20.40;;;11.25;;
20036;SDS011;10179;42.640;23.312;2023-11-22T00:36:33;19.70;;;11.00;;
20036;SDS011;10179;42.640;23.312;2023-11-22T00:38:59;21.75;;;10.40;;
20036;SDS011;10179;42.640;23.312;2023-11-22T00:41:29;19.00;;;10.70;;
20036;SDS011;10179;42.640;23.312;2023-11-22T00:43:55;23.63;;;12.15;;
20036;SDS011;10179;42.640;23.312;2023-11-22T00:46:20;22.95;;;12.27;;
20036;SDS011;10179;42.640;23.312;2023-11-22T00:48:46;19.75;;;11.40;;
20036;SDS011;10179;42.640;23.312;2023-11-22T00:51:11;28.55;;;12.15;;
20036;SDS011;10179;42.640;23.312;2023-11-22T00:53:38;27.65;;;12.25;;
20036;SDS011;10179;42.640;23.312;2023-11-22T00:56:04;19.17;;;11.23;;
20036;SDS011;10179;42.640;23.312;2023-11-22T00:58:31;20.52;;;11.75;;
20036;SDS011;10179;42.640;23.312;2023-11-22T01:00:57;23.38;;;13.27;;
20036;SDS011;10179;42.640;23.312;2023-11-22T01:03:22;24.67;;;12.85;;
20036;SDS011;10179;42.640;23.312;2023-11-22T01:05:48;20.00;;;11.45;;
20036;SDS011;10179;42.640;23.312;2023-11-22T01:08:13;22.75;;;12.82;;
20036;SDS011;10179;42.640;23.312;2023-11-22T01:10:39;24.00;;;12.73;;
20036;SDS011;10179;42.640;23.312;2023-11-22T01:13:04;19.33;;;12.05;;
20036;SDS011;10179;42.640;23.312;2023-11-22T01:15:30;23.33;;;12.57;;
20036;SDS011;10179;42.640;23.312;2023-11-22T01:17:55;21.38;;;12.60;;
20036;SDS011;10179;42.640;23.312;2023-11-22T01:20:21;21.52;;;12.82;;
20036;SDS011;10179;42.640;23.312;2023-11-22T01:22:48;18.55;;;12.20;;
20036;SDS011;10179;42.640;23.312;2023-11-22T01:25:13;22.50;;;12.50;;
20036;SDS011;10179;42.640;23.312;2023-11-22T01:27:39;17.73;;;10.10;;
20036;SDS011;10179;42.640;23.312;2023-11-22T01:30:05;19.73;;;9.85;;
20036;SDS011;10179;42.640;23.312;2023-11-22T01:32:32;19.50;;;10.85;;
20036;SDS011;10179;42.640;23.312;2023-11-22T01:34:59;18.33;;;10.40;;
20036;SDS011;10179;42.640;23.312;2023-11-22T01:37:25;22.83;;;11.80;;
20036;SDS011;10179;42.640;23.312;2023-11-22T01:39:50;19.60;;;12.70;;
20036;SDS011;10179;42.640;23.312;2023-11-22T01:42:17;23.63;;;12.38;;
20036;SDS011;10179;42.640;23.312;2023-11-22T01:44:42;24.48;;;12.98;;
20036;SDS011;10179;42.640;23.312;2023-11-22T01:47:08;22.35;;;12.60;;
20036;SDS011;10179;42.640;23.312;2023-11-22T01:49:34;19.38;;;11.85;;
20036;SDS011;10179;42.640;23.312;2023-11-22T01:52:00;22.52;;;11.30;;
20036;SDS011;10179;42.640;23.312;2023-11-22T01:54:27;18.95;;;11.57;;
20036;SDS011;10179;42.640;23.312;2023-11-22T01:56:54;17.75;;;10.82;;
20036;SDS011;10179;42.640;23.312;2023-11-22T01:59:20;17.80;;;11.15;;
20036;SDS011;10179;42.640;23.312;2023-11-22T02:01:46;15.75;;;10.38;;
20036;SDS011;10179;42.640;23.312;2023-11-22T02:04:14;20.77;;;11.07;;
20036;SDS011;10179;42.640;23.312;2023-11-22T02:06:40;19.77;;;10.77;;
20036;SDS011;10179;42.640;23.312;2023-11-22T02:09:06;19.83;;;10.70;;
20036;SDS011;10179;42.640;23.312;2023-11-22T02:11:31;18.83;;;10.95;;
20036;SDS011;10179;42.640;23.312;2023-11-22T02:13:57;17.00;;;10.57;;
20036;SDS011;10179;42.640;23.312;2023-11-22T02:16:22;21.17;;;10.90;;
20036;SDS011;10179;42.640;23.312;2023-11-22T02:18:48;21.52;;;11.25;;
20036;SDS011;10179;42.640;23.312;2023-11-22T02:21:16;22.20;;;12.38;;
20036;SDS011;10179;42.640;23.312;2023-11-22T02:23:41;20.02;;;11.90;;
20036;SDS011;10179;42.640;23.312;2023-11-22T02:26:07;22.05;;;12.77;;
20036;SDS011;10179;42.640;23.312;2023-11-22T02:28:33;24.30;;;13.68;;
20036;SDS011;10179;42.640;23.312;2023-11-22T02:30:58;27.55;;;14.05;;
20036;SDS011;10179;42.640;23.312;2023-11-22T02:33:24;23.92;;;13.18;;
20036;SDS011;10179;42.640;23.312;2023-11-22T02:35:50;28.55;;;14.60;;
20036;SDS011;10179;42.640;23.312;2023-11-22T02:38:15;23.65;;;13.20;;
20036;SDS011;10179;42.640;23.312;2023-11-22T02:40:43;22.17;;;13.23;;
20036;SDS011;10179;42.640;23.312;2023-11-22T02:43:08;21.65;;;13.70;;
20036;SDS011;10179;42.640;23.312;2023-11-22T02:45:34;24.10;;;14.45;;
20036;SDS011;10179;42.640;23.312;2023-11-22T02:47:59;27.80;;;14.60;;
20036;SDS011;10179;42.640;23.312;2023-11-22T02:50:26;21.45;;;12.38;;
20036;SDS011;10179;42.640;23.312;2023-11-22T02:52:52;23.20;;;12.52;;
20036;SDS011;10179;42.640;23.312;2023-11-22T02:55:18;19.63;;;11.50;;
20036;SDS011;10179;42.640;23.312;2023-11-22T02:57:44;18.58;;;11.88;;
20036;SDS011;10179;42.640;23.312;2023-11-22T03:00:10;19.50;;;12.48;;
20036;SDS011;10179;42.640;23.312;2023-11-22T03:02:40;21.25;;;12.55;;
20036;SDS011;10179;42.640;23.312;2023-11-22T03:05:08;24.38;;;12.02;;
20036;SDS011;10179;42.640;23.312;2023-11-22T03:07:37;20.55;;;11.93;;
20036;SDS011;10179;42.640;23.312;2023-11-22T03:10:05;19.33;;;11.07;;
20036;SDS011;10179;42.640;23.312;2023-11-22T03:12:32;21.05;;;11.65;;
20036;SDS011;10179;42.640;23.312;2023-11-22T03:14:58;19.52;;;11.85;;
20036;SDS011;10179;42.640;23.312;2023-11-22T03:17:27;20.80;;;11.57;;
20036;SDS011;10179;42.640;23.312;2023-11-22T03:19:53;21.55;;;12.02;;
20036;SDS011;10179;42.640;23.312;2023-11-22T03:22:22;18.38;;;11.00;;
20036;SDS011;10179;42.640;23.312;2023-11-22T03:24:49;18.92;;;11.18;;
20036;SDS011;10179;42.640;23.312;2023-11-22T03:27:14;22.13;;;10.95;;
20036;SDS011;10179;42.640;23.312;2023-11-22T03:29:40;23.77;;;12.73;;
20036;SDS011;10179;42.640;23.312;2023-11-22T03:32:05;24.50;;;12.70;;
20036;SDS011;10179;42.640;23.312;2023-11-22T03:34:31;23.92;;;11.32;;
20036;SDS011;10179;42.640;23.312;2023-11-22T03:36:56;21.17;;;11.75;;
20036;SDS011;10179;42.640;23.312;2023-11-22T03:39:22;22.77;;;11.80;;
20036;SDS011;10179;42.640;23.312;2023-11-22T03:41:47;23.52;;;12.27;;
20036;SDS011;10179;42.640;23.312;2023-11-22T03:44:13;24.17;;;12.50;;
20036;SDS011;10179;42.640;23.312;2023-11-22T03:46:38;23.15;;;12.18;;
20036;SDS011;10179;42.640;23.312;2023-11-22T03:49:04;23.35;;;11.80;;
20036;SDS011;10179;42.640;23.312;2023-11-22T03:51:31;20.15;;;11.65;;
20036;SDS011;10179;42.640;23.312;2023-11-22T03:53:57;23.95;;;12.32;;
20036;SDS011;10179;42.640;23.312;2023-11-22T03:56:23;21.95;;;11.68;;
20036;SDS011;10179;42.640;23.312;2023-11-22T03:58:48;19.00;;;10.93;;
20036;SDS011;10179;42.640;23.312;2023-11-22T04:01:14;20.58;;;10.70;;
20036;SDS011;10179;42.640;23.312;2023-11-22T04:03:41;22.48;;;11.15;;
20036;SDS011;10179;42.640;23.312;2023-11-22T04:06:06;21.08;;;11.60;;
20036;SDS011;10179;42.640;23.312;2023-11-22T04:08:31;22.85;;;11.45;;
20036;SDS011;10179;42.640;23.312;2023-11-22T04:10:57;20.88;;;11.55;;
20036;SDS011;10179;42.640;23.312;2023-11-22T04:13:22;22.98;;;12.00;;
20036;SDS011;10179;42.640;23.312;2023-11-22T04:15:49;22.10;;;11.80;;
20036;SDS011;10179;42.640;23.312;2023-11-22T04:18:15;22.52;;;11.85;;
20036;SDS011;10179;42.640;23.312;2023-11-22T04:20:41;24.98;;;12.07;;
20036;SDS011;10179;42.640;23.312;2023-11-22T04:23:07;19.20;;;11.30;;
20036;SDS011;10179;42.640;23.312;2023-11-22T04:25:35;18.17;;;10.65;;
20036;SDS011;10179;42.640;23.312;2023-11-22T04:28:01;21.08;;;10.63;;
20036;SDS011;10179;42.640;23.312;2023-11-22T04:30:27;21.00;;;9.75;;
20036;SDS011;10179;42.640;23.312;2023-11-22T04:32:52;18.35;;;9.38;;
20036;SDS011;10179;42.640;23.312;2023-11-22T04:35:18;14.98;;;9.43;;
20036;SDS011;10179;42.640;23.312;2023-11-22T04:37:43;15.77;;;8.95;;
20036;SDS011;10179;42.640;23.312;2023-11-22T04:40:09;17.13;;;8.88;;
20036;SDS011;10179;42.640;23.312;2023-11-22T04:42:36;19.77;;;8.90;;
20036;SDS011;10179;42.640;23.312;2023-11-22T04:45:03;18.08;;;9.73;;
20036;SDS011;10179;42.640;23.312;2023-11-22T04:47:29;22.25;;;10.27;;
20036;SDS011;10179;42.640;23.312;2023-11-22T04:49:54;19.75;;;9.80;;
20036;SDS011;10179;42.640;23.312;2023-11-22T04:52:19;17.88;;;10.15;;
20036;SDS011;10179;42.640;23.312;2023-11-22T04:54:45;26.17;;;11.98;;
20036;SDS011;10179;42.640;23.312;2023-11-22T04:57:10;20.70;;;11.00;;
20036;SDS011;10179;42.640;23.312;2023-11-22T04:59:36;24.83;;;12.70;;
20036;SDS011;10179;42.640;23.312;2023-11-22T05:02:02;26.55;;;13.30;;
20036;SDS011;10179;42.640;23.312;2023-11-22T05:04:27;22.65;;;12.80;;
20036;SDS011;10179;42.640;23.312;2023-11-22T05:06:55;21.40;;;12.50;;
20036;SDS011;10179;42.640;23.312;2023-11-22T05:09:21;20.45;;;13.05;;
20036;SDS011;10179;42.640;23.312;2023-11-22T05:11:46;25.83;;;13.63;;
20036;SDS011;10179;42.640;23.312;2023-11-22T05:14:12;24.63;;;14.20;;
20036;SDS011;10179;42.640;23.312;2023-11-22T05:16:40;21.30;;;14.15;;
20036;SDS011;10179;42.640;23.312;2023-11-22T05:19:06;23.73;;;13.15;;
20036;SDS011;10179;42.640;23.312;2023-11-22T05:21:31;21.38;;;13.13;;
20036;SDS011;10179;42.640;23.312;2023-11-22T05:23:57;34.30;;;17.23;;
20036;SDS011;10179;42.640;23.312;2023-11-22T05:26:23;24.98;;;14.18;;
20036;SDS011;10179;42.640;23.312;2023-11-22T05:28:48;26.10;;;14.13;;
20036;SDS011;10179;42.640;23.312;2023-11-22T05:31:13;26.75;;;13.38;;
20036;SDS011;10179;42.640;23.312;2023-11-22T05:33:39;23.35;;;12.38;;
20036;SDS011;10179;42.640;23.312;2023-11-22T05:36:05;24.55;;;12.90;;
20036;SDS011;10179;42.640;23.312;2023-11-22T05:38:31;20.90;;;12.98;;
20036;SDS011;10179;42.640;23.312;2023-11-22T05:40:58;23.90;;;12.82;;
20036;SDS011;10179;42.640;23.312;2023-11-22T05:43:24;23.80;;;12.55;;
20036;SDS011;10179;42.640;23.312;2023-11-22T05:45:51;22.95;;;12.50;;
20036;SDS011;10179;42.640;23.312;2023-11-22T05:48:20;24.58;;;13.35;;
20036;SDS011;10179;42.640;23.312;2023-11-22T05:50:46;20.17;;;12.50;;
20036;SDS011;10179;42.640;23.312;2023-11-22T05:53:13;22.67;;;12.55;;
20036;SDS011;10179;42.640;23.312;2023-11-22T05:55:44;21.83;;;12.25;;
20036;SDS011;10179;42.640;23.312;2023-11-22T05:58:13;21.05;;;12.75;;
20036;SDS011;10179;42.640;23.312;2023-11-22T06:00:45;22.27;;;13.02;;
20036;SDS011;10179;42.640;23.312;2023-11-22T06:03:12;22.77;;;13.18;;
20036;SDS011;10179;42.640;23.312;2023-11-22T06:05:38;25.67;;;12.90;;
20036;SDS011;10179;42.640;23.312;2023-11-22T06:08:03;20.58;;;13.35;;
20036;SDS011;10179;42.640;23.312;2023-11-22T06:10:29;19.35;;;12.60;;
20036;SDS011;10179;42.640;23.312;2023-11-22T06:12:54;20.83;;;12.95;;
20036;SDS011;10179;42.640;23.312;2023-11-22T06:15:20;24.40;;;12.75;;
20036;SDS011;10179;42.640;23.312;2023-11-22T06:17:47;17.35;;;11.57;;
20036;SDS011;10179;42.640;23.312;2023-11-22T06:20:13;20.58;;;12.45;;
20036;SDS011;10179;42.640;23.312;2023-11-22T06:22:39;23.85;;;12.55;;
20036;SDS011;10179;42.640;23.312;2023-11-22T06:25:10;21.95;;;12.70;;
20036;SDS011;10179;42.640;23.312;2023-11-22T06:27:38;20.88;;;12.13;;
20036;SDS011;10179;42.640;23.312;2023-11-22T06:30:04;21.50;;;12.68;;
20036;SDS011;10179;42.640;23.312;2023-11-22T06:32:31;19.35;;;11.77;;
20036;SDS011;10179;42.640;23.312;2023-11-22T06:34:57;21.33;;;13.20;;
20036;SDS011;10179;42.640;23.312;2023-11-22T06:37:22;44.90;;;25.38;;
20036;SDS011;10179;42.640;23.312;2023-11-22T06:39:47;64.80;;;39.03;;
20036;SDS011;10179;42.640;23.312;2023-11-22T06:42:13;56.60;;;33.33;;
20036;SDS011;10179;42.640;23.312;2023-11-22T06:44:38;42.75;;;26.00;;
20036;SDS011;10179;42.640;23.312;2023-11-22T06:47:05;37.33;;;19.77;;
20036;SDS011;10179;42.640;23.312;2023-11-22T06:49:31;36.15;;;19.05;;
20036;SDS011;10179;42.640;23.312;2023-11-22T06:51:56;31.50;;;18.13;;
20036;SDS011;10179;42.640;23.312;2023-11-22T06:54:22;32.92;;;20.00;;
20036;SDS011;10179;42.640;23.312;2023-11-22T06:56:47;31.40;;;20.15;;
20036;SDS011;10179;42.640;23.312;2023-11-22T06:59:13;34.60;;;19.60;;
20036;SDS011;10179;42.640;23.312;2023-11-22T07:01:38;27.63;;;16.98;;
20036;SDS011;10179;42.640;23.312;2023-11-22T07:04:04;29.33;;;17.80;;
20036;SDS011;10179;42.640;23.312;2023-11-22T07:06:31;40.05;;;22.98;;
20036;SDS011;10179;42.640;23.312;2023-11-22T07:08:57;32.78;;;20.35;;
20036;SDS011;10179;42.640;23.312;2023-11-22T07:11:23;34.00;;;20.50;;
20036;SDS011;10179;42.640;23.312;2023-11-22T07:13:49;32.03;;;17.92;;
20036;SDS011;10179;42.640;23.312;2023-11-22T07:16:16;34.38;;;17.63;;
20036;SDS011;10179;42.640;23.312;2023-11-22T07:18:43;36.60;;;20.83;;
20036;SDS011;10179;42.640;23.312;2023-11-22T07:21:09;34.83;;;19.38;;
20036;SDS011;10179;42.640;23.312;2023-11-22T07:23:34;36.65;;;19.52;;
20036;SDS011;10179;42.640;23.312;2023-11-22T07:26:00;32.90;;;20.00;;
20036;SDS011;10179;42.640;23.312;2023-11-22T07:28:25;33.17;;;18.73;;
20036;SDS011;10179;42.640;23.312;2023-11-22T07:30:51;31.13;;;19.02;;
20036;SDS011;10179;42.640;23.312;2023-11-22T07:33:17;34.55;;;19.25;;
20036;SDS011;10179;42.640;23.312;2023-11-22T07:35:42;33.90;;;20.35;;
20036;SDS011;10179;42.640;23.312;2023-11-22T07:38:08;30.77;;;19.23;;
20036;SDS011;10179;42.640;23.312;2023-11-22T07:40:35;28.02;;;16.52;;
20036;SDS011;10179;42.640;23.312;2023-11-22T07:43:02;25.90;;;16.45;;
20036;SDS011;10179;42.640;23.312;2023-11-22T07:45:30;31.10;;;17.17;;
20036;SDS011;10179;42.640;23.312;2023-11-22T07:47:56;28.77;;;17.35;;
20036;SDS011;10179;42.640;23.312;2023-11-22T07:50:24;27.25;;;16.75;;
20036;SDS011;10179;42.640;23.312;2023-11-22T07:52:50;25.77;;;16.23;;
20036;SDS011;10179;42.640;23.312;2023-11-22T07:55:16;26.23;;;16.88;;
20036;SDS011;10179;42.640;23.312;2023-11-22T07:57:43;29.05;;;16.85;;
20036;SDS011;10179;42.640;23.312;2023-11-22T08:00:09;27.75;;;16.98;;
20036;SDS011;10179;42.640;23.312;2023-11-22T08:02:36;29.58;;;17.60;;
20036;SDS011;10179;42.640;23.312;2023-11-22T08:05:03;29.58;;;17.67;;
20036;SDS011;10179;42.640;23.312;2023-11-22T08:07:32;39.15;;;20.58;;
20036;SDS011;10179;42.640;23.312;2023-11-22T08:09:58;39.75;;;21.48;;
20036;SDS011;10179;42.640;23.312;2023-11-22T08:12:23;28.88;;;18.65;;
20036;SDS011;10179;42.640;23.312;2023-11-22T08:14:49;28.88;;;17.27;;
20036;SDS011;10179;42.640;23.312;2023-11-22T08:17:14;27.25;;;16.17;;
20036;SDS011;10179;42.640;23.312;2023-11-22T08:19:40;28.25;;;16.58;;
20036;SDS011;10179;42.640;23.312;2023-11-22T08:22:06;31.27;;;17.08;;
20036;SDS011;10179;42.640;23.312;2023-11-22T08:24:31;26.00;;;16.77;;
20036;SDS011;10179;42.640;23.312;2023-11-22T08:26:57;28.75;;;16.15;;
20036;SDS011;10179;42.640;23.312;2023-11-22T08:29:24;28.80;;;16.40;;
20036;SDS011;10179;42.640;23.312;2023-11-22T08:31:49;25.42;;;15.85;;
20036;SDS011;10179;42.640;23.312;2023-11-22T08:34:16;25.63;;;15.45;;
20036;SDS011;10179;42.640;23.312;2023-11-22T08:36:42;26.23;;;16.10;;
20036;SDS011;10179;42.640;23.312;2023-11-22T08:39:07;26.00;;;15.80;;
20036;SDS011;10179;42.640;23.312;2023-11-22T08:41:33;27.40;;;16.15;;
20036;SDS011;10179;42.640;23.312;2023-11-22T08:43:58;26.83;;;15.70;;
20036;SDS011;10179;42.640;23.312;2023-11-22T08:46:25;24.05;;;15.80;;
20036;SDS011;10179;42.640;23.312;2023-11-22T08:48:50;41.55;;;22.40;;
20036;SDS011;10179;42.640;23.312;2023-11-22T08:51:16;27.25;;;18.23;;
20036;SDS011;10179;42.640;23.312;2023-11-22T08:53:42;31.25;;;18.65;;
20036;SDS011;10179;42.640;23.312;2023-11-22T08:56:11;30.77;;;18.42;;
20036;SDS011;10179;42.640;23.312;2023-11-22T08:58:37;33.65;;;18.98;;
20036;SDS011;10179;42.640;23.312;2023-11-22T09:01:04;28.55;;;17.25;;
20036;SDS011;10179;42.640;23.312;2023-11-22T09:03:30;30.20;;;17.90;;
20036;SDS011;10179;42.640;23.312;2023-11-22T09:05:56;29.52;;;17.80;;
20036;SDS011;10179;42.640;23.312;2023-11-22T09:08:21;31.27;;;18.02;;
20036;SDS011;10179;42.640;23.312;2023-11-22T09:10:47;29.48;;;18.35;;
20036;SDS011;10179;42.640;23.312;2023-11-22T09:13:12;31.83;;;18.25;;
20036;SDS011;10179;42.640;23.312;2023-11-22T09:15:41;36.65;;;20.77;;
20036;SDS011;10179;42.640;23.312;2023-11-22T09:18:09;38.50;;;22.27;;
20036;SDS011;10179;42.640;23.312;2023-11-22T09:20:35;29.73;;;19.23;;
20036;SDS011;10179;42.640;23.312;2023-11-22T09:23:00;29.98;;;17.00;;
20036;SDS011;10179;42.640;23.312;2023-11-22T09:25:26;30.33;;;18.38;;
20036;SDS011;10179;42.640;23.312;2023-11-22T09:27:56;37.72;;;21.52;;
20036;SDS011;10179;42.640;23.312;2023-11-22T09:30:26;39.00;;;23.20;;
20036;SDS011;10179;42.640;23.312;2023-11-22T09:35:34;30.92;;;18.00;;
20036;SDS011;10179;42.640;23.312;2023-11-22T09:38:00;31.60;;;17.73;;
20036;SDS011;10179;42.640;23.312;2023-11-22T09:40:27;29.15;;;16.52;;
20036;SDS011;10179;42.640;23.312;2023-11-22T09:42:54;25.00;;;15.73;;
20036;SDS011;10179;42.640;23.312;2023-11-22T09:45:22;26.77;;;15.90;;
20036;SDS011;10179;42.640;23.312;2023-11-22T09:47:50;26.98;;;15.57;;
20036;SDS011;10179;42.640;23.312;2023-11-22T09:50:17;27.45;;;16.50;;
20036;SDS011;10179;42.640;23.312;2023-11-22T09:52:51;29.75;;;17.23;;
20036;SDS011;10179;42.640;23.312;2023-11-22T09:55:19;30.60;;;17.15;;
20036;SDS011;10179;42.640;23.312;2023-11-22T09:57:47;32.20;;;17.83;;
20036;SDS011;10179;42.640;23.312;2023-11-22T10:00:13;32.53;;;18.90;;
20036;SDS011;10179;42.640;23.312;2023-11-22T10:02:43;32.17;;;19.40;;
20036;SDS011;10179;42.640;23.312;2023-11-22T10:05:09;38.58;;;20.90;;
20036;SDS011;10179;42.640;23.312;2023-11-22T10:07:36;36.83;;;20.02;;
20036;SDS011;10179;42.640;23.312;2023-11-22T10:10:02;34.65;;;19.80;;
20036;SDS011;10179;42.640;23.312;2023-11-22T10:12:31;30.80;;;18.70;;
20036;SDS011;10179;42.640;23.312;2023-11-22T10:15:15;34.35;;;20.85;;
20036;SDS011;10179;42.640;23.312;2023-11-22T10:18:17;34.65;;;20.65;;
20036;SDS011;10179;42.640;23.312;2023-11-22T10:20:39;37.42;;;21.95;;
20036;SDS011;10179;42.640;23.312;2023-11-22T10:23:12;32.90;;;20.40;;
20036;SDS011;10179;42.640;23.312;2023-11-22T10:28:09;36.60;;;22.52;;
20036;SDS011;10179;42.640;23.312;2023-11-22T10:30:35;39.28;;;22.48;;
20036;SDS011;10179;42.640;23.312;2023-11-22T10:33:01;36.78;;;22.05;;
20036;SDS011;10179;42.640;23.312;2023-11-22T10:35:27;33.30;;;20.83;;
20036;SDS011;10179;42.640;23.312;2023-11-22T10:37:52;34.10;;;20.38;;
20036;SDS011;10179;42.640;23.312;2023-11-22T10:40:18;26.67;;;16.63;;
20036;SDS011;10179;42.640;23.312;2023-11-22T10:42:43;31.30;;;18.08;;
20036;SDS011;10179;42.640;23.312;2023-11-22T10:45:13;34.22;;;17.48;;
20036;SDS011;10179;42.640;23.312;2023-11-22T10:47:41;33.58;;;18.05;;
20036;SDS011;10179;42.640;23.312;2023-11-22T10:50:08;35.80;;;19.02;;
20036;SDS011;10179;42.640;23.312;2023-11-22T10:52:35;42.15;;;23.35;;
20036;SDS011;10179;42.640;23.312;2023-11-22T10:55:05;35.63;;;21.33;;
20036;SDS011;10179;42.640;23.312;2023-11-22T10:57:36;28.95;;;18.83;;
20036;SDS011;10179;42.640;23.312;2023-11-22T11:00:09;27.52;;;17.23;;
20036;SDS011;10179;42.640;23.312;2023-11-22T11:02:40;28.65;;;15.90;;
20036;SDS011;10179;42.640;23.312;2023-11-22T11:05:18;25.23;;;15.48;;
20036;SDS011;10179;42.640;23.312;2023-11-22T11:07:53;28.45;;;17.83;;
20036;SDS011;10179;42.640;23.312;2023-11-22T11:10:23;29.85;;;18.02;;
20036;SDS011;10179;42.640;23.312;2023-11-22T11:12:49;23.67;;;15.27;;
20036;SDS011;10179;42.640;23.312;2023-11-22T11:15:15;24.88;;;15.65;;
20036;SDS011;10179;42.640;23.312;2023-11-22T11:17:46;20.80;;;13.43;;
20036;SDS011;10179;42.640;23.312;2023-11-22T11:20:15;28.58;;;15.68;;
20036;SDS011;10179;42.640;23.312;2023-11-22T11:22:42;25.50;;;15.93;;
20036;SDS011;10179;42.640;23.312;2023-11-22T11:25:08;32.85;;;19.13;;
20036;SDS011;10179;42.640;23.312;2023-11-22T11:27:34;33.13;;;18.85;;
20036;SDS011;10179;42.640;23.312;2023-11-22T11:33:11;23.90;;;15.55;;
20036;SDS011;10179;42.640;23.312;2023-11-22T11:35:44;24.67;;;15.55;;
20036;SDS011;10179;42.640;23.312;2023-11-22T11:38:15;23.88;;;15.07;;
20036;SDS011;10179;42.640;23.312;2023-11-22T11:40:45;27.17;;;15.93;;
20036;SDS011;10179;42.640;23.312;2023-11-22T11:43:12;26.55;;;16.33;;
20036;SDS011;10179;42.640;23.312;2023-11-22T11:45:42;24.70;;;15.13;;
20036;SDS011;10179;42.640;23.312;2023-11-22T11:48:15;23.25;;;13.98;;
20036;SDS011;10179;42.640;23.312;2023-11-22T11:50:42;24.67;;;13.30;;
20036;SDS011;10179;42.640;23.312;2023-11-22T11:53:08;19.55;;;12.05;;
20036;SDS011;10179;42.640;23.312;2023-11-22T11:55:35;25.65;;;14.88;;
20036;SDS011;10179;42.640;23.312;2023-11-22T11:58:04;26.42;;;15.48;;
20036;SDS011;10179;42.640;23.312;2023-11-22T12:00:34;24.67;;;15.80;;
20036;SDS011;10179;42.640;23.312;2023-11-22T12:03:00;27.25;;;16.60;;
20036;SDS011;10179;42.640;23.312;2023-11-22T12:05:25;30.23;;;17.02;;
20036;SDS011;10179;42.640;23.312;2023-11-22T12:07:52;27.90;;;15.65;;
20036;SDS011;10179;42.640;23.312;2023-11-22T12:10:18;31.15;;;16.02;;
20036;SDS011;10179;42.640;23.312;2023-11-22T12:12:44;30.88;;;17.38;;
20036;SDS011;10179;42.640;23.312;2023-11-22T12:15:10;27.15;;;16.17;;
20036;SDS011;10179;42.640;23.312;2023-11-22T12:17:36;25.70;;;15.32;;
20036;SDS011;10179;42.640;23.312;2023-11-22T12:20:11;25.55;;;15.52;;
20036;SDS011;10179;42.640;23.312;2023-11-22T12:22:42;28.92;;;17.23;;
20036;SDS011;10179;42.640;23.312;2023-11-22T12:25:08;28.67;;;17.00;;
20036;SDS011;10179;42.640;23.312;2023-11-22T12:27:38;33.28;;;17.25;;
20036;SDS011;10179;42.640;23.312;2023-11-22T12:30:04;34.65;;;18.60;;
20036;SDS011;10179;42.640;23.312;2023-11-22T12:32:30;33.88;;;19.25;;
20036;SDS011;10179;42.640;23.312;2023-11-22T12:34:55;29.92;;;17.83;;
20036;SDS011;10179;42.640;23.312;2023-11-22T12:37:21;32.45;;;19.05;;
20036;SDS011;10179;42.640;23.312;2023-11-22T12:39:50;32.35;;;18.42;;
20036;SDS011;10179;42.640;23.312;2023-11-22T12:42:17;31.95;;;18.55;;
20036;SDS011;10179;42.640;23.312;2023-11-22T12:44:49;37.92;;;19.17;;
20036;SDS011;10179;42.640;23.312;2023-11-22T12:47:34;31.52;;;19.25;;
20036;SDS011;10179;42.640;23.312;2023-11-22T12:50:02;30.35;;;18.00;;
20036;SDS011;10179;42.640;23.312;2023-11-22T12:52:29;31.90;;;16.20;;
20036;SDS011;10179;42.640;23.312;2023-11-22T12:54:57;35.75;;;19.17;;
20036;SDS011;10179;42.640;23.312;2023-11-22T12:57:23;34.28;;;19.83;;
20036;SDS011;10179;42.640;23.312;2023-11-22T12:59:49;31.52;;;18.45;;
20036;SDS011;10179;42.640;23.312;2023-11-22T13:02:14;33.63;;;17.73;;
20036;SDS011;10179;42.640;23.312;2023-11-22T13:04:41;31.83;;;19.13;;
20036;SDS011;10179;42.640;23.312;2023-11-22T13:07:07;27.90;;;18.35;;
20036;SDS011;10179;42.640;23.312;2023-11-22T13:09:32;30.38;;;18.63;;
20036;SDS011;10179;42.640;23.312;2023-11-22T13:12:00;32.13;;;18.63;;
20036;SDS011;10179;42.640;23.312;2023-11-22T13:14:26;35.33;;;20.38;;
20036;SDS011;10179;42.640;23.312;2023-11-22T13:16:57;33.72;;;19.27;;
20036;SDS011;10179;42.640;23.312;2023-11-22T13:19:22;36.75;;;18.45;;
20036;SDS011;10179;42.640;23.312;2023-11-22T13:21:47;33.92;;;19.00;;
20036;SDS011;10179;42.640;23.312;2023-11-22T13:24:14;34.05;;;19.90;;
20036;SDS011;10179;42.640;23.312;2023-11-22T13:26:43;33.50;;;19.77;;
20036;SDS011;10179;42.640;23.312;2023-11-22T13:29:08;33.80;;;19.58;;
20036;SDS011;10179;42.640;23.312;2023-11-22T13:31:33;35.58;;;19.73;;
20036;SDS011;10179;42.640;23.312;2023-11-22T13:33:59;32.75;;;19.58;;
20036;SDS011;10179;42.640;23.312;2023-11-22T13:36:24;36.88;;;19.48;;
20036;SDS011;10179;42.640;23.312;2023-11-22T13:38:50;34.20;;;20.45;;
20036;SDS011;10179;42.640;23.312;2023-11-22T13:41:15;33.90;;;19.33;;
20036;SDS011;10179;42.640;23.312;2023-11-22T13:43:41;37.47;;;19.95;;
20036;SDS011;10179;42.640;23.312;2023-11-22T13:46:06;43.05;;;23.20;;
20036;SDS011;10179;42.640;23.312;2023-11-22T13:48:35;41.50;;;24.80;;
20036;SDS011;10179;42.640;23.312;2023-11-22T13:51:00;42.60;;;24.10;;
20036;SDS011;10179;42.640;23.312;2023-11-22T13:53:27;49.33;;;26.73;;
20036;SDS011;10179;42.640;23.312;2023-11-22T13:55:57;47.67;;;30.73;;
20036;SDS011;10179;42.640;23.312;2023-11-22T13:58:25;48.03;;;32.78;;
20036;SDS011;10179;42.640;23.312;2023-11-22T14:00:51;48.25;;;31.45;;
20036;SDS011;10179;42.640;23.312;2023-11-22T14:03:19;55.03;;;32.95;;
20036;SDS011;10179;42.640;23.312;2023-11-22T14:05:47;50.83;;;30.63;;
20036;SDS011;10179;42.640;23.312;2023-11-22T14:08:13;46.28;;;28.92;;
20036;SDS011;10179;42.640;23.312;2023-11-22T14:10:40;46.15;;;29.15;;
20036;SDS011;10179;42.640;23.312;2023-11-22T14:13:05;47.60;;;30.35;;